Durham, North Carolina
Current Conditions -  °F | °C
As of 7:56 AM on Monday 22 Dec 2014 (Local Time) from KIGX Reporting Station
Haze Haze  
Wind Chill: 30°   Ceiling: 700
Heat Index: 36°   Visibility: 4mi
Dew Point: 34°   Wind: 8mph
Humidity: 93%   Direction: 40°NE
Pressure: 30.17"   Gusts: NA
Location:  36°N, 78.9°W
Report Text: KIGX 221256Z AUTO 04007KT 4SM BR OVC007 02/01 A3017 RMK AO2 RAE34 SLP218 P0001 T00220011
Loading
Personal Weather Stations






























Interactive Weather Map New forecast layout! Learn more

10-Day Weather Forecast

Advertisements
Track Severe Weather on mobile